LS879 / G-JZHL 7700 Squawk Report (15th of September, 2019)

Aircraft B738 Reg No. G-JZHL Age 3 years old
Model 737 Jet engines 2 First flight 21-10-16
Registered 30-10-16 Rollout N/A Delivered 30-10-16
Construction No. 63568 Line No. 6138 Series 800
ADSHEX 4070F0 Airline name Jet2 Owner N/A
Airfield based N/A First tracked 2017-07-13 10:06:00

Flight history for G-JZHL

Route Flight No Date Playback
Václav Havel Airport Prague (PRG) - Glasgow (GLA) LS154 2019-10-21 21:02:00
Glasgow (GLA) - Václav Havel Airport Prague (PRG) LS153 2019-10-21 17:38:00
Fiumicino (FCO) - Glasgow (GLA) LS136 2019-10-21 15:36:00
Glasgow (GLA) - Fiumicino (FCO) LS135 2019-10-21 09:47:00
Dalaman (DLM) - Glasgow (GLA) LS152 2019-10-21 01:27:00
Glasgow (GLA) - Dalaman (DLM) LS151 2019-10-20 19:55:00
Faro (FAO) - Glasgow (GLA) LS174 2019-10-20 13:56:00
Glasgow (GLA) - Faro (FAO) LS173 2019-10-20 10:56:00
Gran Canaria (LPA) - Glasgow (GLA) LS144 2019-10-20 00:44:00
Glasgow (GLA) - Gran Canaria (LPA) LS143 2019-10-19 19:08:00
Reus (REU) - Glasgow (GLA) LS122 2019-10-19 14:44:00
Glasgow (GLA) - Reus (REU) LS121 2019-10-19 11:06:00
Rhodes Diagoras (RHO) - Glasgow (GLA) LS182 2019-10-19 07:20:00
Glasgow (GLA) - Rhodes Diagoras (RHO) LS181 2019-10-18 19:22:00
Fiumicino (FCO) - Glasgow (GLA) LS136 2019-10-18 13:48:00
Glasgow (GLA) - Fiumicino (FCO) LS135 2019-10-18 09:24:00
Adnan Menderes (ADB) - Glasgow (GLA) LS108 2019-10-18 06:29:00
Glasgow (GLA) - Adnan Menderes (ADB) LS107 2019-10-17 20:11:00
Son Sant Joan (PMI) - Glasgow (GLA) LS190 2019-10-17 14:26:00
Glasgow (GLA) - Son Sant Joan (PMI) LS189 2019-10-17 08:42:00
Time Lat Lon Altitude Heading Speed Vertical Rate
2019-09-15 21:20:20 GMT 53.356789 -2.278855 0 5 14 0
2019-09-15 21:20:05 GMT 53.355999 -2.279522 0 53 14 0
2019-09-15 21:19:34 GMT 53.354671 -2.281440 0 16 12 0
2019-09-15 21:19:29 GMT 53.354450 -2.281541 0 11 12 0
2019-09-15 21:19:20 GMT 53.353985 -2.281662 0 8 11 0
2019-09-15 21:19:09 GMT 53.353497 -2.281824 0 19 9 0
2019-09-15 21:18:59 GMT 53.353134 -2.282017 0 19 9 0
2019-09-15 21:18:48 GMT 53.352669 -2.282248 0 343 10 0
2019-09-15 21:18:44 GMT 53.352482 -2.282135 0 315 10 0
2019-09-15 21:18:38 GMT 53.352322 -2.281784 0 275 11 0
2019-09-15 21:18:32 GMT 53.352333 -2.281299 0 261 14 0
2019-09-15 21:18:27 GMT 53.352390 -2.280742 0 261 18 0
2019-09-15 21:18:20 GMT 53.352486 -2.279683 0 261 23 0
2019-09-15 21:18:16 GMT 53.352543 -2.279098 0 258 26 0
2019-09-15 21:18:10 GMT 53.352764 -2.277765 0 250 28 0
2019-09-15 21:18:05 GMT 53.352947 -2.276977 0 244 30 0
2019-09-15 21:18:02 GMT 53.353134 -2.276367 0 239 32 0
2019-09-15 21:17:56 GMT 53.353729 -2.274994 0 230 53 0
2019-09-15 21:17:51 GMT 53.354462 -2.273503 0 230 74 0
2019-09-15 21:17:45 GMT 53.355881 -2.270560 -50 231 98 -192
2019-09-15 21:17:42 GMT 53.356777 -2.268758 -50 231 112 -128
2019-09-15 21:17:38 GMT 53.358173 -2.265849 -25 231 130 -128
2019-09-15 21:17:32 GMT 53.360363 -2.261326 0 231 132 -576
2019-09-15 21:17:28 GMT 53.361923 -2.258161 50 231 132 -640
2019-09-15 21:17:23 GMT 53.364040 -2.253813 125 232 132 -640
2019-09-15 21:17:17 GMT 53.366364 -2.248901 200 232 133 -704
2019-09-15 21:17:12 GMT 53.368137 -2.245169 250 232 133 -704
2019-09-15 21:17:07 GMT 53.370026 -2.241211 300 232 133 -704
2019-09-15 21:17:02 GMT 53.371906 -2.237414 350 231 132 -704
2019-09-15 21:16:57 GMT 53.374283 -2.232500 425 232 133 -704
2019-09-15 21:16:53 GMT 53.375446 -2.230144 450 232 133 -704
2019-09-15 21:16:49 GMT 53.377075 -2.226670 525 232 133 -768
2019-09-15 21:16:46 GMT 53.378036 -2.224731 550 232 133 -768
2019-09-15 21:16:41 GMT 53.379913 -2.220773 600 232 133 -768
2019-09-15 21:16:37 GMT 53.382660 -2.215079 700 232 133 -704
2019-09-15 21:16:31 GMT 53.383942 -2.212411 725 232 132 -704
2019-09-15 21:16:26 GMT 53.386093 -2.208017 800 231 132 -704
2019-09-15 21:16:21 GMT 53.387737 -2.204617 850 231 132 -704
2019-09-15 21:16:17 GMT 53.389412 -2.201143 900 232 133 -704
2019-09-15 21:16:14 GMT 53.390579 -2.198678 950 232 133 -704
2019-09-15 21:16:10 GMT 53.391861 -2.196089 975 231 134 -704
2019-09-15 21:16:06 GMT 53.393600 -2.192499 1,025 232 135 -704
2019-09-15 21:16:03 GMT 53.395882 -2.187814 1,075 231 136 -704
2019-09-15 21:16:00 GMT 53.395882 -2.187814 1,100 232 137 -704
2019-09-15 21:15:56 GMT 53.397511 -2.184421 1,175 232 140 -768
2019-09-15 21:15:49 GMT 53.400192 -2.178824 1,225 232 143 -768
2019-09-15 21:15:43 GMT 53.402679 -2.173516 1,325 232 146 -832
2019-09-15 21:15:40 GMT 53.404263 -2.170204 1,375 231 150 -832
2019-09-15 21:15:37 GMT 53.405800 -2.167053 1,400 232 154 -832
2019-09-15 21:15:34 GMT 53.407196 -2.164071 1,425 231 155 -768
2019-09-15 21:15:30 GMT 53.408684 -2.161075 1,450 231 159 -896
2019-09-15 21:15:27 GMT 53.409801 -2.158652 1,525 232 160 -896
2019-09-15 21:15:23 GMT 53.411709 -2.154694 1,600 232 162 -896
2019-09-15 21:15:18 GMT 53.413990 -2.150008 1,675 232 160 -960
2019-09-15 21:15:15 GMT 53.415668 -2.146615 1,750 231 159 -896
2019-09-15 21:15:12 GMT 53.417130 -2.143590 1,775 232 159 -896
2019-09-15 21:15:08 GMT 53.421207 -2.135144 1,850 232 157 -832
2019-09-15 21:15:03 GMT 53.421207 -2.135144 1,900 232 157 -896
2019-09-15 21:15:00 GMT 53.422943 -2.131505 1,950 231 157 -896
2019-09-15 21:14:57 GMT 53.425816 -2.125612 2,000 232 156 -896
2019-09-15 21:14:54 GMT 53.425816 -2.125612 2,050 232 156 -896
2019-09-15 21:14:51 GMT 53.426422 -2.124285 2,075 231 155 -896
2019-09-15 21:14:47 GMT 53.428516 -2.119957 2,125 232 155 -832
2019-09-15 21:14:44 GMT 53.429581 -2.117693 2,150 232 155 -832
2019-09-15 21:14:41 GMT 53.431122 -2.114545 2,200 232 155 -896
2019-09-15 21:14:37 GMT 53.432922 -2.110788 2,275 232 154 -896
2019-09-15 21:14:34 GMT 53.434055 -2.108325 2,375 232 154 -832
2019-09-15 21:14:31 GMT 53.435852 -2.104667 2,375 232 154 -832
2019-09-15 21:14:27 GMT 53.437126 -2.102024 2,400 232 154 -832
2019-09-15 21:14:24 GMT 53.438805 -2.098550 2,450 232 155 -768
2019-09-15 21:14:21 GMT 53.440338 -2.095328 2,500 232 156 -768
2019-09-15 21:14:18 GMT 53.441437 -2.093052 2,850 232 157 -704
2019-09-15 21:14:15 GMT 53.442902 -2.090070 2,550 231 157 -704
2019-09-15 21:14:12 GMT 53.444248 -2.087241 2,575 231 157 -704
2019-09-15 21:14:08 GMT 53.445923 -2.083714 2,675 232 157 -832
2019-09-15 21:14:05 GMT 53.447525 -2.080340 2,700 232 156 -832
2019-09-15 21:14:01 GMT 53.449139 -2.076981 2,750 232 156 -832
2019-09-15 21:13:58 GMT 53.450489 -2.074235 2,800 232 155 -832
2019-09-15 21:13:55 GMT 53.452011 -2.071001 2,825 232 155 -832
2019-09-15 21:13:52 GMT 53.453568 -2.067705 2,875 231 154 -768
2019-09-15 21:13:48 GMT 53.455421 -2.063895 3,050 231 153 -896
2019-09-15 21:13:45 GMT 53.456539 -2.061552 2,975 231 153 -896
2019-09-15 21:13:42 GMT 53.458122 -2.058321 3,025 231 153 -896
2019-09-15 21:13:39 GMT 53.459061 -2.056405 3,075 231 153 -896
2019-09-15 21:13:36 GMT 53.460388 -2.053659 3,100 231 152 -832
2019-09-15 21:13:32 GMT 53.462360 -2.049596 3,125 231 152 -704
2019-09-15 21:13:28 GMT 53.466454 -2.041114 3,200 231 152 -448
2019-09-15 21:13:23 GMT 53.466454 -2.041114 3,200 232 151 -320
2019-09-15 21:13:19 GMT 53.467808 -2.038287 3,225 232 151 -256
2019-09-15 21:13:16 GMT 53.469341 -2.035137 3,225 232 151 -192
2019-09-15 21:13:13 GMT 53.470737 -2.032309 3,250 232 152 0
2019-09-15 21:13:09 GMT 53.473904 -2.025523 3,250 233 152 0
2019-09-15 21:13:06 GMT 53.473904 -2.025523 3,250 233 152 0
2019-09-15 21:13:02 GMT 53.475395 -2.022211 3,250 234 153 0
2019-09-15 21:12:59 GMT 53.476685 -2.019366 3,250 235 153 0
2019-09-15 21:12:56 GMT 53.477829 -2.016697 3,250 235 152 64
2019-09-15 21:12:53 GMT 53.479073 -2.013810 3,250 235 152 0
2019-09-15 21:12:50 GMT 53.480236 -2.010983 3,250 235 152 0
2019-09-15 21:12:47 GMT 53.481537 -2.007908 3,250 237 151 0
2019-09-15 21:12:44 GMT 53.482635 -2.005319 3,250 237 151 0
2019-09-15 21:12:40 GMT 53.484425 -2.001127 3,250 237 150 0
2019-09-15 21:12:37 GMT 53.485428 -1.998570 3,250 239 150 0
2019-09-15 21:12:34 GMT 53.486614 -1.995392 3,250 240 150 0
2019-09-15 21:12:31 GMT 53.487545 -1.992888 3,250 241 149 0
2019-09-15 21:12:28 GMT 53.488708 -1.989333 3,250 244 149 0
2019-09-15 21:12:25 GMT 53.489731 -1.986093 3,250 244 149 0
2019-09-15 21:12:21 GMT 53.490707 -1.982709 3,250 247 149 64
2019-09-15 21:12:18 GMT 53.491966 -1.978185 3,250 250 149 -128
2019-09-15 21:12:14 GMT 53.492710 -1.975116 3,250 256 147 -192
2019-09-15 21:12:11 GMT 53.493176 -1.971400 3,250 267 148 128
2019-09-15 21:12:08 GMT 53.493301 -1.967573 3,250 270 149 0
2019-09-15 21:12:04 GMT 53.493347 -1.962864 3,250 270 149 0
2019-09-15 21:12:01 GMT 53.493393 -1.958862 3,250 270 149 0
2019-09-15 21:11:58 GMT 53.493408 -1.956536 3,250 270 149 0
2019-09-15 21:11:55 GMT 53.493408 -1.952254 3,250 270 149 0
2019-09-15 21:11:52 GMT 53.493458 -1.949346 3,250 270 149 0
2019-09-15 21:11:49 GMT 53.493484 -1.945679 3,250 270 149 0
2019-09-15 21:11:46 GMT 53.493504 -1.942237 3,250 270 150 0
2019-09-15 21:11:43 GMT 53.493549 -1.938602 3,250 270 149 0
2019-09-15 21:11:40 GMT 53.493549 -1.935290 3,250 270 150 0
2019-09-15 21:11:37 GMT 53.493595 -1.931897 3,250 270 150 0
2019-09-15 21:11:33 GMT 53.493622 -1.927159 3,250 270 150 0
2019-09-15 21:11:30 GMT 53.493641 -1.923011 3,250 270 150 0
2019-09-15 21:11:27 GMT 53.493641 -1.920992 3,250 270 150 0
2019-09-15 21:11:24 GMT 53.493668 -1.916565 3,250 270 150 0
2019-09-15 21:11:21 GMT 53.493713 -1.913191 3,250 270 150 0
2019-09-15 21:11:18 GMT 53.493759 -1.909581 3,250 270 150 0
2019-09-15 21:11:15 GMT 53.493782 -1.906613 3,250 270 150 0
2019-09-15 21:11:12 GMT 53.493782 -1.902089 3,250 270 150 0
2019-09-15 21:11:09 GMT 53.493805 -1.897888 3,250 270 150 0
2019-09-15 21:11:06 GMT 53.493805 -1.896711 3,250 270 150 0
2019-09-15 21:11:03 GMT 53.493828 -1.892557 3,250 270 150 0
2019-09-15 21:11:00 GMT 53.493851 -1.888707 3,250 270 149 0
2019-09-15 21:10:57 GMT 53.493874 -1.884074 3,250 270 149 0
2019-09-15 21:10:54 GMT 53.493919 -1.880520 3,250 270 149 0
2019-09-15 21:10:50 GMT 53.493942 -1.874346 3,250 270 149 64
2019-09-15 21:10:47 GMT 53.493969 -1.870907 3,225 270 149 64
2019-09-15 21:10:44 GMT 53.493988 -1.865557 3,225 270 149 64
2019-09-15 21:10:40 GMT 53.493988 -1.865557 3,225 270 149 0
2019-09-15 21:10:36 GMT 53.494015 -1.860971 3,225 270 149 0
2019-09-15 21:10:33 GMT 53.494034 -1.856297 3,225 270 149 -64
2019-09-15 21:10:29 GMT 53.494080 -1.849077 3,275 270 149 -384
2019-09-15 21:10:26 GMT 53.494080 -1.849077 3,250 270 149 -320
2019-09-15 21:10:23 GMT 53.494125 -1.846488 3,275 270 148 -832
2019-09-15 21:10:19 GMT 53.494156 -1.841583 3,350 269 146 -1088
2019-09-15 21:10:16 GMT 53.494217 -1.835502 3,425 269 145 -1024
2019-09-15 21:10:13 GMT 53.494217 -1.835502 3,475 269 144 -1088
2019-09-15 21:10:10 GMT 53.494308 -1.831264 3,525 269 144 -960
2019-09-15 21:10:07 GMT 53.494389 -1.823892 3,575 269 144 -896
2019-09-15 21:10:04 GMT 53.494446 -1.821612 3,625 269 144 -832
2019-09-15 21:10:01 GMT 53.494526 -1.817833 3,650 269 145 -832
2019-09-15 21:09:58 GMT 53.494526 -1.817833 3,675 269 145 -832
2019-09-15 21:09:55 GMT 53.494583 -1.814471 3,700 269 145 -832
2019-09-15 21:09:52 GMT 53.494675 -1.810547 3,775 268 145 -896
2019-09-15 21:09:48 GMT 53.494759 -1.806524 3,825 268 145 -960
2019-09-15 21:09:44 GMT 53.494904 -1.801836 3,900 268 144 -896
2019-09-15 21:09:41 GMT 53.494991 -1.798446 3,950 267 144 -896
2019-09-15 21:09:38 GMT 53.495087 -1.796186 4,000 267 144 -896
2019-09-15 21:09:35 GMT 53.495178 -1.792226 4,050 267 145 -832
2019-09-15 21:09:32 GMT 53.495316 -1.788810 4,050 268 145 -832
2019-09-15 21:09:28 GMT 53.495407 -1.784886 4,125 269 146 -704
2019-09-15 21:09:25 GMT 53.495457 -1.781724 4,150 274 147 -640
2019-09-15 21:09:22 GMT 53.495411 -1.776312 4,200 286 148 -768
2019-09-15 21:09:19 GMT 53.495178 -1.774370 4,225 292 149 -832
2019-09-15 21:09:16 GMT 53.494492 -1.770290 4,275 301 152 -832
2019-09-15 21:09:13 GMT 53.493484 -1.767151 4,325 310 154 -832
2019-09-15 21:09:10 GMT 53.492897 -1.765568 4,325 313 154 -832
2019-09-15 21:09:07 GMT 53.491196 -1.762364 4,375 318 156 -832
2019-09-15 21:09:04 GMT 53.489502 -1.760010 4,425 324 158 -640
2019-09-15 21:08:58 GMT 53.485794 -1.755537 4,475 324 159 -512
2019-09-15 21:08:55 GMT 53.482285 -1.751188 4,525 323 161 -448
2019-09-15 21:08:52 GMT 53.480713 -1.749102 4,550 317 161 -384
2019-09-15 21:08:49 GMT 53.480713 -1.749102 4,550 312 160 -384
2019-09-15 21:08:46 GMT 53.479256 -1.746826 4,575 309 160 -384
2019-09-15 21:08:43 GMT 53.477627 -1.743433 4,600 300 161 -384
2019-09-15 21:08:40 GMT 53.476227 -1.738900 4,625 288 164 -448
2019-09-15 21:08:36 GMT 53.475540 -1.735291 4,625 281 165 -448
2019-09-15 21:08:33 GMT 53.475128 -1.731053 4,675 264 173 -384
2019-09-15 21:08:30 GMT 53.475266 -1.726188 4,675 252 177 -448
2019-09-15 21:08:25 GMT 53.476044 -1.720694 4,725 242 183 -512
2019-09-15 21:08:22 GMT 53.476822 -1.717477 4,800 224 195 -576
2019-09-15 21:08:19 GMT 53.478561 -1.712612 4,775 231 190 -512
2019-09-15 21:08:16 GMT 53.480606 -1.708778 4,925 226 193 -512
2019-09-15 21:08:13 GMT 53.481956 -1.706597 4,825 217 199 -576
2019-09-15 21:08:10 GMT 53.484192 -1.703901 4,850 207 205 -576
2019-09-15 21:08:07 GMT 53.487350 -1.701233 4,900 198 211 -704
2019-09-15 21:08:04 GMT 53.489594 -1.699820 5,050 191 215 -768
2019-09-15 21:08:01 GMT 53.492203 -1.698879 4,950 188 216 -896
2019-09-15 21:07:57 GMT 53.497101 -1.698172 5,050 171 223 -1472
2019-09-15 21:07:54 GMT 53.499664 -1.698408 5,100 168 224 -1664
2019-09-15 21:07:51 GMT 53.505466 -1.700700 5,225 157 226 -2176
2019-09-15 21:07:48 GMT 53.505466 -1.700700 5,300 157 226 -2176
2019-09-15 21:07:45 GMT 53.508957 -1.703352 5,400 150 230 -2176
2019-09-15 21:07:41 GMT 53.514683 -1.708697 5,575 149 234 -1856
2019-09-15 21:07:38 GMT 53.514683 -1.708697 5,625 148 235 -1664
2019-09-15 21:07:35 GMT 53.517941 -1.712009 5,700 148 236 -1600
2019-09-15 21:07:32 GMT 53.520641 -1.714756 5,875 148 239 -1408
2019-09-15 21:07:29 GMT 53.523285 -1.717477 5,850 148 239 -1408
2019-09-15 21:07:26 GMT 53.526581 -1.720851 5,925 148 242 -960
2019-09-15 21:07:23 GMT 53.529442 -1.723803 6,000 148 244 -1024
2019-09-15 21:07:20 GMT 53.532421 -1.726873 6,050 148 244 -1152
2019-09-15 21:07:17 GMT 53.538006 -1.732689 6,100 148 246 -1088
2019-09-15 21:07:14 GMT 53.538006 -1.732689 6,150 148 246 -1088
2019-09-15 21:07:11 GMT 53.543964 -1.738910 6,200 148 246 -1152
2019-09-15 21:07:08 GMT 53.547272 -1.742383 6,300 148 247 -1216
2019-09-15 21:07:04 GMT 53.547272 -1.742383 6,325 147 248 -1216
2019-09-15 21:07:01 GMT 53.550575 -1.745857 6,400 147 249 -1152
2019-09-15 21:06:58 GMT 53.553276 -1.748684 6,475 147 249 -1152
2019-09-15 21:06:55 GMT 53.556198 -1.751848 6,725 147 250 -1216
2019-09-15 21:06:52 GMT 53.562351 -1.758378 6,600 147 250 -1280
2019-09-15 21:06:49 GMT 53.562351 -1.758378 6,625 147 250 -1216
2019-09-15 21:06:43 GMT 53.571896 -1.768476 6,750 147 252 -1152
2019-09-15 21:06:40 GMT 53.571896 -1.768476 6,825 147 253 -1216
2019-09-15 21:06:37 GMT 53.573479 -1.770172 6,875 147 254 -1088
2019-09-15 21:06:34 GMT 53.580231 -1.777442 6,925 147 257 -512
2019-09-15 21:06:31 GMT 53.583534 -1.780997 6,950 147 259 -512
2019-09-15 21:06:28 GMT 53.583534 -1.780997 6,975 147 261 -448
2019-09-15 21:06:24 GMT 53.587326 -1.785043 6,975 147 264 -320
2019-09-15 21:06:21 GMT 53.590530 -1.788496 6,975 147 266 -128
2019-09-15 21:06:18 GMT 53.596298 -1.794695 6,975 147 274 0
2019-09-15 21:06:15 GMT 53.596298 -1.794695 6,975 147 277 0
2019-09-15 21:06:11 GMT 53.604530 -1.803373 6,975 147 286 -64
2019-09-15 21:06:08 GMT 53.607422 -1.806388 6,975 148 289 0
2019-09-15 21:06:05 GMT 53.607422 -1.806388 6,975 148 294 0
2019-09-15 21:06:02 GMT 53.611279 -1.810482 6,975 148 295 0
2019-09-15 21:05:59 GMT 53.613934 -1.813229 6,975 148 301 64
2019-09-15 21:05:56 GMT 53.617565 -1.817026 6,975 148 305 0
2019-09-15 21:05:53 GMT 53.620560 -1.820121 6,975 148 307 0
2019-09-15 21:05:50 GMT 53.626225 -1.826073 6,975 148 314 0
2019-09-15 21:05:47 GMT 53.629440 -1.829381 6,975 148 316 -64
2019-09-15 21:05:44 GMT 53.636398 -1.836522 6,975 148 327 -192
2019-09-15 21:05:41 GMT 53.636398 -1.836522 7,000 148 330 -384
2019-09-15 21:05:38 GMT 53.640381 -1.840681 7,000 148 333 -576
2019-09-15 21:05:34 GMT 53.645123 -1.845542 7,050 148 337 -896
2019-09-15 21:05:31 GMT 53.650177 -1.850804 7,150 148 342 -1536
2019-09-15 21:05:28 GMT 53.659653 -1.860613 7,275 148 346 -1856
2019-09-15 21:05:24 GMT 53.659653 -1.860613 7,350 148 348 -1920
2019-09-15 21:05:21 GMT 53.663464 -1.864525 7,475 148 352 -1984
2019-09-15 21:05:18 GMT 53.667469 -1.868726 7,525 148 353 -2048
2019-09-15 21:05:15 GMT 53.672356 -1.873734 7,600 148 355 -2304
2019-09-15 21:05:11 GMT 53.677094 -1.878741 7,875 148 357 -2944
2019-09-15 21:05:08 GMT 53.682037 -1.883763 8,000 148 358 -3200
2019-09-15 21:05:05 GMT 53.690872 -1.892630 8,175 149 358 -3328
2019-09-15 21:05:02 GMT 53.690872 -1.892630 8,325 149 359 -3264
2019-09-15 21:04:59 GMT 53.693584 -1.895384 8,475 149 359 -3264
2019-09-15 21:04:56 GMT 53.697006 -1.898751 8,550 149 360 -3200
2019-09-15 21:04:53 GMT 53.701870 -1.903543 8,725 149 361 -3136
2019-09-15 21:04:50 GMT 53.707226 -1.908794 8,950 149 362 -3264
2019-09-15 21:04:47 GMT 53.711136 -1.912671 9,325 149 363 -3200
2019-09-15 21:04:44 GMT 53.715603 -1.917033 9,250 149 363 -3072
2019-09-15 21:04:41 GMT 53.720535 -1.921980 9,375 149 365 -2880
2019-09-15 21:04:38 GMT 53.725471 -1.926889 9,575 149 369 -2240
2019-09-15 21:04:34 GMT 53.730743 -1.932181 9,700 149 371 -2240
2019-09-15 21:04:31 GMT 53.733852 -1.935209 9,900 152 372 -3072
2019-09-15 21:04:28 GMT 53.739120 -1.940107 10,500 158 363 -4736
2019-09-15 21:04:25 GMT 53.743149 -1.943324 10,125 156 368 -4288
2019-09-15 21:04:22 GMT 53.748886 -1.947488 10,450 157 363 -4672
2019-09-15 21:04:19 GMT 53.752659 -1.950073 10,650 157 361 -4800
2019-09-15 21:04:16 GMT 53.757614 -1.953448 10,975 156 346 -3008
2019-09-15 21:04:13 GMT 53.761597 -1.956213 11,350 157 356 -4608
2019-09-15 21:04:10 GMT 53.768188 -1.960746 11,425 157 355 -4544
2019-09-15 21:04:07 GMT 53.772125 -1.963571 11,525 157 354 -4544
2019-09-15 21:04:04 GMT 53.776657 -1.966788 11,700 156 353 -4416
2019-09-15 21:04:01 GMT 53.780273 -1.969378 12,100 156 350 -4224
2019-09-15 21:03:58 GMT 53.785034 -1.972831 12,225 156 348 -4096
2019-09-15 21:03:55 GMT 53.789612 -1.976127 12,375 156 347 -4032
2019-09-15 21:03:52 GMT 53.794647 -1.979801 12,650 156 346 -3648
2019-09-15 21:03:49 GMT 53.798607 -1.982709 12,750 156 346 -3520
2019-09-15 21:03:46 GMT 53.802841 -1.985860 13,025 156 347 -2496
2019-09-15 21:03:43 GMT 53.807964 -1.989656 13,125 156 348 -2112
2019-09-15 21:03:40 GMT 53.812408 -1.992920 13,200 156 349 -1856
2019-09-15 21:03:37 GMT 53.815784 -1.995473 13,225 156 351 -1728
2019-09-15 21:03:34 GMT 53.825180 -2.002494 13,425 155 354 -2112
2019-09-15 21:03:31 GMT 53.828888 -2.005319 13,500 155 354 -2368
2019-09-15 21:03:28 GMT 53.833382 -2.008802 13,575 151 358 -1728
2019-09-15 21:03:22 GMT 53.837402 -2.012068 13,775 151 358 -1728
2019-09-15 21:03:19 GMT 53.843994 -2.018172 13,925 145 362 -1856
2019-09-15 21:03:16 GMT 53.847290 -2.022034 13,975 141 365 -1856
2019-09-15 21:03:13 GMT 53.850632 -2.026036 14,300 136 369 -1664
2019-09-15 21:03:09 GMT 53.856377 -2.034652 14,225 134 371 -1600
2019-09-15 21:03:06 GMT 53.860428 -2.041888 14,225 130 373 -1664
2019-09-15 21:03:03 GMT 53.862854 -2.046518 14,300 126 375 -1792
2019-09-15 21:03:00 GMT 53.866341 -2.054686 14,425 121 379 -1792
2019-09-15 21:02:57 GMT 53.868946 -2.061471 14,550 117 381 -1600
2019-09-15 21:02:54 GMT 53.871738 -2.070115 14,600 114 384 -1472
2019-09-15 21:02:51 GMT 53.873932 -2.078064 14,675 111 385 -1408
2019-09-15 21:02:48 GMT 53.875900 -2.086853 17,450 106 388 -1408
2019-09-15 21:02:45 GMT 53.877514 -2.095561 14,775 103 389 -1408
2019-09-15 21:02:42 GMT 53.878723 -2.104205 14,925 97 392 -1600
2019-09-15 21:02:39 GMT 53.879608 -2.113010 15,000 93 392 -1792
2019-09-15 21:02:36 GMT 53.880157 -2.121538 15,075 90 393 -1856
2019-09-15 21:02:33 GMT 53.880306 -2.134417 15,150 88 392 -1920
2019-09-15 21:02:30 GMT 53.880074 -2.141526 15,350 78 391 -1984
2019-09-15 21:02:27 GMT 53.879608 -2.148533 15,300 81 392 -1984
2019-09-15 21:02:24 GMT 53.877277 -2.168265 15,550 73 390 -1920
2019-09-15 21:02:21 GMT 53.877277 -2.168265 15,950 68 389 -1856
2019-09-15 21:02:18 GMT 53.875809 -2.176392 16,425 68 389 -1856
2019-09-15 21:02:15 GMT 53.874023 -2.184082 15,725 57 384 -1792
2019-09-15 21:02:12 GMT 53.871826 -2.192322 15,850 60 385 -1856
2019-09-15 21:02:09 GMT 53.868389 -2.202840 15,925 57 384 -1792
2019-09-15 21:02:05 GMT 53.865051 -2.211312 16,100 48 379 -1856
2019-09-15 21:02:02 GMT 53.862167 -2.217669 16,150 45 376 -1984
2019-09-15 21:01:59 GMT 53.858425 -2.224651 16,275 41 373 -2112
2019-09-15 21:01:56 GMT 53.854706 -2.230695 16,350 39 370 -2176
2019-09-15 21:01:52 GMT 53.849258 -2.238150 16,500 33 366 -2304
2019-09-15 21:01:48 GMT 53.843529 -2.244604 16,600 31 363 -2304
2019-09-15 21:01:45 GMT 53.835297 -2.251805 16,800 23 355 -1984
2019-09-15 21:01:39 GMT 53.830536 -2.254944 17,000 14 347 -1920
2019-09-15 21:01:36 GMT 53.824814 -2.257690 17,100 10 342 -2048
2019-09-15 21:01:33 GMT 53.820766 -2.259145 17,150 7 341 -2112
2019-09-15 21:01:30 GMT 53.814991 -2.260518 17,225 5 339 -2048
2019-09-15 21:01:27 GMT 53.811687 -2.260922 17,300 4 338 -1920
2019-09-15 21:01:24 GMT 53.807312 -2.261326 17,425 2 338 -1856
2019-09-15 21:01:21 GMT 53.801376 -2.261850 17,575 2 339 -1920
2019-09-15 21:01:17 GMT 53.795151 -2.262320 17,700 2 339 -1792
2019-09-15 21:01:14 GMT 53.791214 -2.262713 17,750 2 340 -1728
2019-09-15 21:01:11 GMT 53.787155 -2.263022 17,825 2 340 -1728
2019-09-15 21:01:08 GMT 53.778168 -2.263830 18,000 2 341 -1920
2019-09-15 21:01:05 GMT 53.778168 -2.263830 18,050 2 342 -1920
2019-09-15 21:01:02 GMT 53.772350 -2.264234 18,125 2 342 -1856
2019-09-15 21:00:59 GMT 53.767593 -2.264675 18,225 2 343 -1856
2019-09-15 21:00:56 GMT 53.762054 -2.265067 18,300 2 344 -1920
2019-09-15 21:00:53 GMT 53.758896 -2.265365 18,350 2 344 -1920
2019-09-15 21:00:50 GMT 53.754272 -2.265773 18,575 2 345 -2048
2019-09-15 21:00:47 GMT 53.745861 -2.266415 18,675 2 346 -1856
2019-09-15 21:00:44 GMT 53.744431 -2.266558 18,875 2 347 -1024
2019-09-15 21:00:41 GMT 53.733536 -2.267500 18,850 2 347 -1216
2019-09-15 21:00:38 GMT 53.733536 -2.267500 18,950 2 348 -576
2019-09-15 21:00:35 GMT 53.729382 -2.267788 18,950 2 348 -512
2019-09-15 21:00:32 GMT 53.723923 -2.268284 18,950 2 348 -512
2019-09-15 21:00:29 GMT 53.719421 -2.268596 18,950 2 348 -320
2019-09-15 21:00:26 GMT 53.713989 -2.269069 18,950 2 346 1792
2019-09-15 21:00:23 GMT 53.709641 -2.269383 18,950 2 348 448
2019-09-15 21:00:20 GMT 53.704990 -2.269808 18,925 2 347 640
2019-09-15 21:00:16 GMT 53.700333 -2.270131 18,750 2 346 1536
2019-09-15 21:00:13 GMT 53.693306 -2.270696 18,725 2 346 1856
2019-09-15 21:00:10 GMT 53.688046 -2.271181 18,675 2 346 2048
2019-09-15 21:00:07 GMT 53.678741 -2.271894 18,400 2 346 2816
2019-09-15 21:00:03 GMT 53.678741 -2.271894 18,350 2 346 2880
2019-09-15 21:00:00 GMT 53.673477 -2.272287 18,250 2 345 3200
2019-09-15 20:59:57 GMT 53.668400 -2.272635 18,000 2 345 4032
2019-09-15 20:59:54 GMT 53.659462 -2.273281 15,150 2 345 4544
2019-09-15 20:59:48 GMT 53.654526 -2.273604 17,375 2 345 4160
2019-09-15 20:59:45 GMT 53.649902 -2.273856 17,125 2 344 4160
2019-09-15 20:59:42 GMT 53.644798 -2.274170 16,975 2 344 4160
2019-09-15 20:59:39 GMT 53.640514 -2.274493 16,825 2 344 4096
2019-09-15 20:59:36 GMT 53.630219 -2.275190 16,450 2 342 4032
2019-09-15 20:59:33 GMT 53.630219 -2.275190 16,325 2 341 3776
2019-09-15 20:59:30 GMT 53.626083 -2.275462 16,100 2 340 3648
2019-09-15 20:59:27 GMT 53.620743 -2.275818 15,875 2 339 3840
2019-09-15 20:59:24 GMT 53.615097 -2.276189 15,675 3 338 4096
2019-09-15 20:59:21 GMT 53.610302 -2.276593 15,675 3 338 4096
2019-09-15 20:59:18 GMT 53.606392 -2.277159 15,250 8 343 3968
2019-09-15 20:59:15 GMT 53.602798 -2.277937 14,950 14 345 3968
2019-09-15 20:59:11 GMT 53.595497 -2.280552 14,850 17 347 3968
2019-09-15 20:59:05 GMT 53.586227 -2.285941 14,450 24 351 4096
2019-09-15 20:59:01 GMT 53.581207 -2.289842 14,100 26 351 4032
2019-09-15 20:58:58 GMT 53.576569 -2.293788 14,050 27 351 3904
2019-09-15 20:58:55 GMT 53.571579 -2.298340 13,800 30 351 3648
2019-09-15 20:58:51 GMT 53.567230 -2.302656 13,475 30 348 3712
2019-09-15 20:58:48 GMT 53.561703 -2.308260 13,425 30 348 3712
2019-09-15 20:58:44 GMT 53.557419 -2.312541 12,950 30 346 3968
2019-09-15 20:58:41 GMT 53.549011 -2.320783 12,925 30 344 3968
2019-09-15 20:58:38 GMT 53.549011 -2.320783 12,600 30 342 4032
2019-09-15 20:58:35 GMT 53.545456 -2.324255 12,475 30 341 4032
2019-09-15 20:58:32 GMT 53.540543 -2.329102 12,425 30 340 3968
2019-09-15 20:58:29 GMT 53.536751 -2.332818 12,250 30 339 3968
2019-09-15 20:58:26 GMT 53.532978 -2.336533 11,825 30 336 3968
2019-09-15 20:58:23 GMT 53.528229 -2.341108 11,725 30 336 3968
2019-09-15 20:58:20 GMT 53.523666 -2.345581 11,600 30 335 3904
2019-09-15 20:58:17 GMT 53.520355 -2.348798 11,500 30 334 3904
2019-09-15 20:58:13 GMT 53.515274 -2.353821 11,125 30 331 3520
2019-09-15 20:58:10 GMT 53.511284 -2.357698 11,000 30 329 3008
2019-09-15 20:58:07 GMT 53.503185 -2.365615 10,800 30 320 1600
2019-09-15 20:58:01 GMT 53.496368 -2.372262 10,550 30 308 2432
2019-09-15 20:57:55 GMT 53.491405 -2.377167 10,375 30 305 3136
2019-09-15 20:57:52 GMT 53.488380 -2.380156 10,275 30 302 3392
2019-09-15 20:57:49 GMT 53.484741 -2.383719 10,075 30 300 3392
2019-09-15 20:57:46 GMT 53.481167 -2.387264 10,000 30 300 3520
2019-09-15 20:57:42 GMT 53.476276 -2.392031 9,650 30 297 4160
2019-09-15 20:57:38 GMT 53.468811 -2.399257 9,225 30 296 3904
2019-09-15 20:57:32 GMT 53.463615 -2.404309 8,900 30 293 4480
2019-09-15 20:57:26 GMT 53.457642 -2.410243 8,550 30 294 4800
2019-09-15 20:57:23 GMT 53.454391 -2.413539 8,275 30 295 4608
2019-09-15 20:57:20 GMT 53.450500 -2.417306 8,075 30 295 4416
2019-09-15 20:57:17 GMT 53.446106 -2.421544 7,825 29 295 3968
2019-09-15 20:57:14 GMT 53.444202 -2.423374 7,675 29 294 3904
2019-09-15 20:57:11 GMT 53.439240 -2.427979 7,250 25 290 4096
2019-09-15 20:57:07 GMT 53.435303 -2.431510 7,075 24 289 4160
2019-09-15 20:57:04 GMT 53.427071 -2.437349 6,900 18 286 3904
2019-09-15 20:57:01 GMT 53.423393 -2.438965 6,625 10 279 3776
2019-09-15 20:56:58 GMT 53.423393 -2.438965 6,475 8 279 3840
2019-09-15 20:56:55 GMT 53.420181 -2.440015 6,400 3 274 3968
2019-09-15 20:56:52 GMT 53.417019 -2.440580 6,100 358 270 3968
2019-09-15 20:56:49 GMT 53.412186 -2.440613 5,975 354 268 3776
2019-09-15 20:56:45 GMT 53.406647 -2.439357 5,725 348 265 3392
2019-09-15 20:56:42 GMT 53.403049 -2.437995 5,625 346 264 3136
2019-09-15 20:56:39 GMT 53.399372 -2.436380 5,400 347 263 2240
2019-09-15 20:56:35 GMT 53.395340 -2.434570 5,250 346 263 2432
2019-09-15 20:56:32 GMT 53.392410 -2.433393 5,100 347 263 2048
2019-09-15 20:56:26 GMT 53.384125 -2.430097 4,950 348 263 1408
2019-09-15 20:56:22 GMT 53.380692 -2.428763 4,900 348 263 1152
2019-09-15 20:56:19 GMT 53.376755 -2.427351 4,825 349 262 832
2019-09-15 20:56:16 GMT 53.373093 -2.426095 4,775 349 262 640
2019-09-15 20:56:13 GMT 53.369999 -2.425070 4,775 349 262 384
2019-09-15 20:56:10 GMT 53.364880 -2.423293 4,750 349 262 192
2019-09-15 20:56:07 GMT 53.362747 -2.422564 4,750 349 263 -64
2019-09-15 20:56:04 GMT 53.357990 -2.420950 4,750 349 263 0
2019-09-15 20:56:01 GMT 53.355244 -2.420062 4,750 348 263 64
2019-09-15 20:55:55 GMT 53.348820 -2.417558 4,725 334 252 1728
2019-09-15 20:55:52 GMT 53.344574 -2.415658 4,725 344 261 576
2019-09-15 20:55:49 GMT 53.341507 -2.413932 4,675 339 256 1088
2019-09-15 20:55:46 GMT 53.333725 -2.408125 4,450 332 250 1856
2019-09-15 20:55:42 GMT 53.333725 -2.408125 4,450 329 246 2048
2019-09-15 20:55:39 GMT 53.330708 -2.405117 4,400 327 245 2112
2019-09-15 20:55:36 GMT 53.327404 -2.400917 4,125 310 235 2944
2019-09-15 20:55:32 GMT 53.324936 -2.396878 4,050 307 233 2560
2019-09-15 20:55:29 GMT 53.323196 -2.393058 3,900 295 226 1536
2019-09-15 20:55:26 GMT 53.320560 -2.383306 3,850 284 217 1408
2019-09-15 20:55:20 GMT 53.319809 -2.372341 3,675 265 204 1280
2019-09-15 20:55:17 GMT 53.319809 -2.372341 3,675 263 201 1280
2019-09-15 20:55:14 GMT 53.320038 -2.369123 3,625 261 199 1344
2019-09-15 20:55:11 GMT 53.321304 -2.359556 3,425 256 185 2112
2019-09-15 20:55:04 GMT 53.322144 -2.354213 3,325 257 177 2880
2019-09-15 20:55:01 GMT 53.322750 -2.349943 3,150 257 175 3392
2019-09-15 20:54:58 GMT 53.323288 -2.345973 3,050 257 175 3648
2019-09-15 20:54:55 GMT 53.324051 -2.341300 2,575 246 178 4160
2019-09-15 20:54:52 GMT 53.324707 -2.338205 2,375 238 180 3584
2019-09-15 20:54:49 GMT 53.325668 -2.334987 2,275 235 179 3136
2019-09-15 20:54:46 GMT 53.327358 -2.330717 2,150 234 177 3008
2019-09-15 20:54:43 GMT 53.328598 -2.328003 1,950 233 176 3008
2019-09-15 20:54:40 GMT 53.330109 -2.324629 1,875 233 175 2880
2019-09-15 20:54:37 GMT 53.331779 -2.321104 1,750 233 173 2496
2019-09-15 20:54:34 GMT 53.333450 -2.317566 1,625 232 166 1536
2019-09-15 20:54:31 GMT 53.334480 -2.315449 1,575 232 162 1664
2019-09-15 20:54:28 GMT 53.337505 -2.309148 1,450 232 156 1984
2019-09-15 20:54:25 GMT 53.338856 -2.306240 450 232 150 2880
2019-09-15 20:54:19 GMT 53.340454 -2.302970 1,100 232 151 2624
2019-09-15 20:54:16 GMT 53.341232 -2.301322 875 232 151 2624
2019-09-15 20:54:13 GMT 53.342766 -2.298081 875 232 150 2496
2019-09-15 20:54:09 GMT 53.344257 -2.294850 650 232 150 2880
2019-09-15 20:54:06 GMT 53.345535 -2.292140 650 232 150 2880
2019-09-15 20:54:02 GMT 53.347515 -2.288064 275 232 150 2368
2019-09-15 20:53:59 GMT 53.348724 -2.285479 250 232 150 2240
2019-09-15 20:53:54 GMT 53.350819 -2.281117 75 232 149 1856
2019-09-15 20:53:45 GMT 53.354496 -2.273443 0 232 134 0
2019-09-15 20:53:42 GMT 53.355614 -2.271100 0 233 115 -128
2019-09-15 20:53:38 GMT 53.356918 -2.268434 25 232 94 -64
2019-09-15 20:53:33 GMT 53.358158 -2.265871 0 230 72
2019-09-15 20:53:27 GMT 53.359234 -2.263648 0 230 49
2019-09-15 20:53:18 GMT 53.360023 -2.261987 0 230 7
2019-09-15 20:53:06 GMT 53.360184 -2.261653 0 230 4
2019-09-15 20:52:57 GMT 53.360271 -2.261427 0 210 5
2019-09-15 20:52:47 GMT 53.360477 -2.261285 0 149 7
2019-09-15 20:52:37 GMT 53.360783 -2.261669 0 140 8
2019-09-15 20:52:27 GMT 53.361065 -2.262046 0 140 9
2019-09-15 20:52:15 GMT 53.361401 -2.262578 0 112 6
2019-09-15 20:50:34 GMT 53.361454 -2.262811 0 90 0
2019-09-15 20:50:23 GMT 53.361458 -2.262881 0 81 4
2019-09-15 20:50:13 GMT 53.361446 -2.263123 0 56 6
2019-09-15 20:50:02 GMT 53.361259 -2.263537 0 50 7
2019-09-15 20:49:50 GMT 53.361004 -2.264072 0 50 10
2019-09-15 20:49:39 GMT 53.360710 -2.264678 0 53 9
2019-09-15 20:49:29 GMT 53.360470 -2.265185 0 50 8
2019-09-15 20:49:21 GMT 53.360264 -2.265616 0 53 10
2019-09-15 20:49:09 GMT 53.359932 -2.266303 0 50 11
2019-09-15 20:48:58 GMT 53.359585 -2.267001 0 50 11
2019-09-15 20:48:48 GMT 53.359280 -2.267667 0 56 11
2019-09-15 20:48:37 GMT 53.359024 -2.268354 0 56 11
2019-09-15 20:48:28 GMT 53.358742 -2.268971 0 50 12
2019-09-15 20:48:16 GMT 53.358353 -2.269854 0 59 13
2019-09-15 20:48:04 GMT 53.358002 -2.270858 0 50 15
2019-09-15 20:47:57 GMT 53.357674 -2.271524 0 50 17
2019-09-15 20:47:47 GMT 53.357162 -2.272595 0 50 18
2019-09-15 20:47:35 GMT 53.356590 -2.273746 0 50 11

Making use of Plane Finder data

You are free to use the raw flight data, aircraft information and images provided in this report for your own purposes provided the data is correctly attributed to Plane Finder. We ask that you please credit Plane Finder and link to planefinder.net in close proximity to the content.

Optionally one of the following logos (no smaller then 150x24px) can be used and must link to planefinder.net

Embedding the Plane Finder map

You are welcome to embed the Plane Finder playback map on your website to offer visitors a more interactive experience. We suggest using the following HTML code:

<iframe src="//planefinder.net/data/report/LS879-G-JZHL-7700-squawk-2019-09-15/map" width="800" height="600" seamless="seamless"></iframe>

Where our data comes from

Plane Finder has a global network of data feeds and antenna radars that receive data broadcast directly from aircraft. The primary technologies used are ADS-B and MLAT. We also show feeds from the FAA and a FLARM glider feed.

Click here to find out more about the Plane Finder network.

How we collect our data